Time;durP1;ratioP1;P1;durP2;ratioP2;P2;SDS_P1;SDS_P2;PMS_P1;PMS_P2;Temp;Humidity;BMP_temperature;BMP_pressure;BME280_temperature;BME280_humidity;BME280_pressure;Samples;Min_cycle;Max_cycle;Signal;HPM_P1;HPM_P2
2023/09/15 00:00:17;;;;;;;;;7.00;7.00;;;;;;;;5045190;28;8883;-81
2023/09/15 00:02:44;;;;;;;;;6.00;6.00;;;;;;;;5074862;28;9689;-82
2023/09/15 00:05:12;;;;;;;;;8.00;7.00;;;;;;;;5058626;28;8874;-82
2023/09/15 00:07:40;;;;;;;;;5.00;5.00;;;;;;;;5036260;28;8878;-83
2023/09/15 00:10:11;;;;;;;;;5.00;5.00;;;;;;;;5069316;28;9327;-82
2023/09/15 00:12:40;;;;;;;;;7.00;5.00;;;;;;;;5069945;28;8836;-83
2023/09/15 00:15:09;;;;;;;;;5.00;5.00;;;;;;;;5070345;28;9043;-81
2023/09/15 00:17:37;;;;;;;;;6.50;6.50;;;;;;;;5071229;28;8843;-82
2023/09/15 00:20:13;;;;;;;;;9.00;7.00;;;;;;;;5071173;28;8933;-82
2023/09/15 00:22:48;;;;;;;;;8.25;5.25;;;;;;;;5071353;28;8979;-82
2023/09/15 00:25:18;;;;;;;;;6.00;5.50;;;;;;;;5068386;28;8856;-82
2023/09/15 00:27:51;;;;;;;;;6.00;5.00;;;;;;;;5064995;28;8856;-83
2023/09/15 00:30:20;;;;;;;;;6.00;6.00;;;;;;;;5057161;28;8844;-81
2023/09/15 00:32:50;;;;;;;;;5.25;5.25;;;;;;;;5068865;28;8890;-81
2023/09/15 00:35:18;;;;;;;;;4.75;4.00;;;;;;;;5068752;28;8837;-82
2023/09/15 00:37:49;;;;;;;;;5.50;5.50;;;;;;;;5068182;28;8983;-83
2023/09/15 00:40:17;;;;;;;;;5.75;5.00;;;;;;;;5068634;28;8853;-83
2023/09/15 00:42:48;;;;;;;;;5.00;5.00;;;;;;;;5067865;28;8875;-82
2023/09/15 00:45:19;;;;;;;;;3.75;3.75;;;;;;;;5069002;28;8857;-82
2023/09/15 00:47:49;;;;;;;;;5.00;5.00;;;;;;;;5068402;28;8844;-82
2023/09/15 00:50:19;;;;;;;;;8.25;6.50;;;;;;;;5068819;28;8848;-83
2023/09/15 00:52:49;;;;;;;;;6.00;6.00;;;;;;;;5068630;28;8853;-82
2023/09/15 00:55:20;;;;;;;;;4.50;4.50;;;;;;;;5068874;28;8864;-82
2023/09/15 00:57:52;;;;;;;;;4.00;3.50;;;;;;;;5068829;28;8841;-82
2023/09/15 01:00:20;;;;;;;;;4.25;4.25;;;;;;;;5067730;28;8864;-81
2023/09/15 01:02:51;;;;;;;;;6.00;6.00;;;;;;;;5036129;28;9006;-81
2023/09/15 01:05:22;;;;;;;;;7.50;7.00;;;;;;;;5069593;28;8878;-82
2023/09/15 01:07:51;;;;;;;;;5.25;5.25;;;;;;;;5060662;28;9630;-80
2023/09/15 01:10:19;;;;;;;;;5.00;5.00;;;;;;;;5068665;28;8909;-82
2023/09/15 01:12:49;;;;;;;;;4.75;4.75;;;;;;;;5069855;28;8837;-81
2023/09/15 01:15:17;;;;;;;;;7.00;7.00;;;;;;;;5070838;28;8995;-81
2023/09/15 01:17:50;;;;;;;;;5.50;5.50;;;;;;;;5073579;28;8856;-80
2023/09/15 01:20:32;;;;;;;;;6.75;6.75;;;;;;;;5074445;28;8937;-82
2023/09/15 01:23:17;;;;;;;;;6.25;5.00;;;;;;;;5073616;28;8868;-81
2023/09/15 01:26:05;;;;;;;;;6.50;6.50;;;;;;;;5074242;28;8852;-82
2023/09/15 01:28:51;;;;;;;;;6.00;6.00;;;;;;;;5073045;28;8848;-81
2023/09/15 01:31:21;;;;;;;;;7.75;7.00;;;;;;;;5067624;28;8853;-82
2023/09/15 01:33:48;;;;;;;;;6.75;5.50;;;;;;;;5068789;28;8856;-82
2023/09/15 01:36:17;;;;;;;;;6.00;6.00;;;;;;;;5068418;28;8850;-81
2023/09/15 01:38:44;;;;;;;;;5.50;5.00;;;;;;;;5068517;28;8848;-81
2023/09/15 01:41:11;;;;;;;;;7.00;7.00;;;;;;;;5068459;28;8845;-81
2023/09/15 01:43:39;;;;;;;;;8.00;6.25;;;;;;;;5068086;28;8855;-82
2023/09/15 01:46:06;;;;;;;;;6.50;6.50;;;;;;;;5068153;28;8908;-83
2023/09/15 01:48:36;;;;;;;;;8.25;8.25;;;;;;;;5068016;28;8868;-82
2023/09/15 01:51:06;;;;;;;;;5.00;5.00;;;;;;;;5067699;28;8991;-82
2023/09/15 01:53:36;;;;;;;;;7.25;6.25;;;;;;;;5068239;28;8858;-82
2023/09/15 01:56:03;;;;;;;;;6.00;6.00;;;;;;;;5069451;28;8876;-82
2023/09/15 01:58:31;;;;;;;;;6.00;6.00;;;;;;;;5070939;28;9643;-82
2023/09/15 02:00:58;;;;;;;;;7.00;7.00;;;;;;;;5069405;28;8919;-81
2023/09/15 02:03:25;;;;;;;;;6.00;6.00;;;;;;;;5062043;28;8859;-82
2023/09/15 02:05:54;;;;;;;;;8.50;6.25;;;;;;;;5061540;28;8941;-81
2023/09/15 02:08:21;;;;;;;;;5.50;4.25;;;;;;;;5067740;28;8832;-82
2023/09/15 02:10:48;;;;;;;;;9.75;7.00;;;;;;;;5067586;28;8971;-81
2023/09/15 02:13:15;;;;;;;;;5.00;4.00;;;;;;;;5061620;28;9823;-81
2023/09/15 02:15:43;;;;;;;;;7.00;6.75;;;;;;;;5068493;28;8864;-81
2023/09/15 02:18:11;;;;;;;;;7.50;7.50;;;;;;;;5068901;28;8841;-80
2023/09/15 02:20:38;;;;;;;;;4.25;4.25;;;;;;;;5069326;28;8848;-81
2023/09/15 02:23:07;;;;;;;;;6.25;6.25;;;;;;;;5072287;28;8864;-82
2023/09/15 02:25:35;;;;;;;;;6.75;6.75;;;;;;;;5069565;28;8856;-81
2023/09/15 02:28:02;;;;;;;;;6.75;6.75;;;;;;;;5071111;28;9015;-81
2023/09/15 02:30:30;;;;;;;;;7.00;7.00;;;;;;;;5070537;28;8935;-81
2023/09/15 02:32:57;;;;;;;;;7.00;5.00;;;;;;;;5071308;28;8871;-81
2023/09/15 02:35:24;;;;;;;;;8.50;6.75;;;;;;;;5070523;28;8884;-81
2023/09/15 02:37:51;;;;;;;;;5.25;5.25;;;;;;;;5070861;28;8872;-81
2023/09/15 02:40:20;;;;;;;;;8.25;8.25;;;;;;;;5070637;28;8860;-81
2023/09/15 02:42:50;;;;;;;;;6.50;6.50;;;;;;;;5071233;28;8848;-81
2023/09/15 02:45:18;;;;;;;;;6.25;5.75;;;;;;;;5071016;28;8937;-81
2023/09/15 02:47:46;;;;;;;;;6.75;6.75;;;;;;;;5053577;28;8848;-81
2023/09/15 02:50:30;;;;;;;;;5.25;5.25;;;;;;;;5071274;28;8852;-80
2023/09/15 02:52:58;;;;;;;;;5.25;5.25;;;;;;;;5071281;28;8990;-80
2023/09/15 02:55:27;;;;;;;;;8.75;8.75;;;;;;;;5072634;28;8875;-80
2023/09/15 02:57:54;;;;;;;;;8.00;8.00;;;;;;;;5074161;28;8868;-79
2023/09/15 03:00:22;;;;;;;;;9.00;7.25;;;;;;;;5074634;28;8841;-80
2023/09/15 03:02:49;;;;;;;;;6.00;6.00;;;;;;;;5076159;28;8836;-80
2023/09/15 03:05:21;;;;;;;;;8.25;7.00;;;;;;;;5076845;28;8856;-81
2023/09/15 03:07:48;;;;;;;;;6.00;5.25;;;;;;;;5076145;28;8875;-80
2023/09/15 03:10:18;;;;;;;;;8.50;7.25;;;;;;;;5071441;28;8848;-81
2023/09/15 03:12:51;;;;;;;;;6.50;6.50;;;;;;;;5070407;28;8848;-81
2023/09/15 03:15:19;;;;;;;;;4.50;4.50;;;;;;;;5070415;28;9813;-81
2023/09/15 03:17:48;;;;;;;;;7.50;5.50;;;;;;;;5070596;28;8861;-81
2023/09/15 03:20:18;;;;;;;;;4.75;4.75;;;;;;;;5070621;28;8852;-80
2023/09/15 03:22:46;;;;;;;;;5.00;5.00;;;;;;;;5070107;28;8852;-81
2023/09/15 03:25:14;;;;;;;;;6.25;6.25;;;;;;;;5070646;28;9712;-80
2023/09/15 03:27:41;;;;;;;;;5.25;5.25;;;;;;;;5069476;28;8937;-81
2023/09/15 03:30:11;;;;;;;;;6.00;6.00;;;;;;;;5069543;28;8837;-81
2023/09/15 03:32:38;;;;;;;;;7.00;7.00;;;;;;;;5069720;28;8861;-82
2023/09/15 03:35:07;;;;;;;;;5.75;5.75;;;;;;;;5070739;28;9630;-81
2023/09/15 03:37:34;;;;;;;;;7.25;6.75;;;;;;;;5070690;28;8854;-81
2023/09/15 03:40:04;;;;;;;;;7.25;6.75;;;;;;;;5072256;28;8864;-81
2023/09/15 03:42:32;;;;;;;;;6.75;6.75;;;;;;;;5071132;28;8876;-81
2023/09/15 03:44:59;;;;;;;;;6.00;6.00;;;;;;;;5069126;28;8842;-81
2023/09/15 03:47:27;;;;;;;;;6.00;6.00;;;;;;;;5061950;28;8847;-81
2023/09/15 03:49:55;;;;;;;;;7.00;7.00;;;;;;;;5063552;28;8960;-81
2023/09/15 03:52:22;;;;;;;;;6.75;6.75;;;;;;;;5069123;28;8848;-81
2023/09/15 03:54:49;;;;;;;;;5.00;5.00;;;;;;;;5068190;28;8864;-80
2023/09/15 03:57:17;;;;;;;;;8.50;7.75;;;;;;;;5069774;28;8848;-81
2023/09/15 03:59:44;;;;;;;;;9.00;9.00;;;;;;;;5069604;28;8894;-82
2023/09/15 04:02:11;;;;;;;;;9.50;9.25;;;;;;;;5070796;28;8804;-81
2023/09/15 04:04:40;;;;;;;;;8.00;6.75;;;;;;;;5070062;28;9005;-83
2023/09/15 04:07:07;;;;;;;;;7.50;7.00;;;;;;;;5075038;28;8939;-86
2023/09/15 04:09:35;;;;;;;;;8.00;8.00;;;;;;;;5055524;28;8856;-81
2023/09/15 04:12:04;;;;;;;;;8.25;7.50;;;;;;;;5069244;28;8848;-81
2023/09/15 04:14:34;;;;;;;;;7.75;7.75;;;;;;;;5068823;28;8860;-82
2023/09/15 04:17:03;;;;;;;;;8.75;8.75;;;;;;;;5068710;28;9030;-81
2023/09/15 04:19:31;;;;;;;;;9.25;7.00;;;;;;;;5068651;28;8967;-83
2023/09/15 04:21:59;;;;;;;;;8.25;8.25;;;;;;;;5068569;28;8874;-81
2023/09/15 04:24:27;;;;;;;;;7.25;7.25;;;;;;;;5068902;28;8829;-81
2023/09/15 04:26:54;;;;;;;;;8.00;7.75;;;;;;;;5068539;28;8963;-79
2023/09/15 04:29:21;;;;;;;;;7.00;7.00;;;;;;;;5068903;28;9664;-81
2023/09/15 04:31:48;;;;;;;;;8.00;8.00;;;;;;;;5070182;28;8820;-77
2023/09/15 04:34:16;;;;;;;;;8.50;8.50;;;;;;;;5072885;28;8863;-78
2023/09/15 04:36:45;;;;;;;;;9.00;9.00;;;;;;;;5073022;28;8913;-78
2023/09/15 04:39:14;;;;;;;;;7.25;7.00;;;;;;;;5073404;28;8939;-78
2023/09/15 04:41:43;;;;;;;;;5.75;4.00;;;;;;;;5074023;28;8846;-79
2023/09/15 04:44:11;;;;;;;;;8.75;8.75;;;;;;;;5062400;28;8860;-78
2023/09/15 04:46:41;;;;;;;;;10.50;10.50;;;;;;;;5069991;28;8877;-78
2023/09/15 04:49:08;;;;;;;;;8.75;8.75;;;;;;;;5068771;28;8844;-83
2023/09/15 04:51:35;;;;;;;;;8.75;8.75;;;;;;;;5068300;28;8886;-83
2023/09/15 04:54:02;;;;;;;;;9.50;8.00;;;;;;;;5068714;28;8863;-82
2023/09/15 04:56:31;;;;;;;;;8.00;8.00;;;;;;;;5063775;28;8863;-84
2023/09/15 04:58:58;;;;;;;;;9.75;9.75;;;;;;;;5068078;28;8990;-84
2023/09/15 05:01:25;;;;;;;;;9.25;9.25;;;;;;;;5067642;28;8840;-82
2023/09/15 05:03:55;;;;;;;;;9.75;9.25;;;;;;;;5068278;28;8970;-82
2023/09/15 05:06:25;;;;;;;;;7.75;7.75;;;;;;;;5068290;28;8957;-82
2023/09/15 05:08:53;;;;;;;;;8.50;8.50;;;;;;;;5067945;28;8870;-79
2023/09/15 05:11:20;;;;;;;;;8.75;8.75;;;;;;;;5068244;28;8846;-82
2023/09/15 05:13:52;;;;;;;;;9.50;9.50;;;;;;;;5069320;28;8852;-77
2023/09/15 05:16:20;;;;;;;;;9.25;9.25;;;;;;;;5069473;28;8833;-79
2023/09/15 05:18:49;;;;;;;;;9.00;9.00;;;;;;;;5068895;28;8864;-74
2023/09/15 05:21:17;;;;;;;;;12.00;9.25;;;;;;;;5068836;28;8848;-81
2023/09/15 05:23:44;;;;;;;;;9.00;9.00;;;;;;;;5068005;28;8849;-78
2023/09/15 05:26:11;;;;;;;;;7.50;7.25;;;;;;;;5067979;28;8852;-71
2023/09/15 05:28:38;;;;;;;;;8.00;6.75;;;;;;;;5067159;28;8874;-71
2023/09/15 05:31:07;;;;;;;;;7.50;7.00;;;;;;;;5067165;28;8814;-74
2023/09/15 05:33:34;;;;;;;;;8.50;8.50;;;;;;;;5067544;28;9495;-79
2023/09/15 05:36:01;;;;;;;;;9.00;9.00;;;;;;;;5055376;28;8845;-74
2023/09/15 05:38:29;;;;;;;;;8.00;8.00;;;;;;;;5054418;28;8830;-86
2023/09/15 05:40:57;;;;;;;;;12.25;10.25;;;;;;;;5067666;28;8978;-74
2023/09/15 05:43:24;;;;;;;;;9.25;9.25;;;;;;;;5067302;28;8852;-74
2023/09/15 05:45:51;;;;;;;;;9.00;9.00;;;;;;;;5067569;28;8876;-81
2023/09/15 05:48:23;;;;;;;;;8.00;8.00;;;;;;;;5068239;28;8870;-70
2023/09/15 05:50:50;;;;;;;;;8.00;8.00;;;;;;;;5069484;28;8861;-69
2023/09/15 05:53:20;;;;;;;;;10.00;10.00;;;;;;;;5069593;28;8856;-69
2023/09/15 05:55:48;;;;;;;;;12.00;10.25;;;;;;;;5068639;28;8829;-70
2023/09/15 05:58:15;;;;;;;;;10.50;10.00;;;;;;;;5067439;28;8865;-78
2023/09/15 06:00:46;;;;;;;;;7.75;7.50;;;;;;;;5068421;28;8803;-76
2023/09/15 06:03:13;;;;;;;;;7.50;6.25;;;;;;;;5071038;28;8895;-69
2023/09/15 06:05:42;;;;;;;;;8.75;8.75;;;;;;;;5071220;28;8898;-76
2023/09/15 06:08:09;;;;;;;;;8.75;8.25;;;;;;;;5070768;28;9639;-70
2023/09/15 06:10:39;;;;;;;;;9.00;9.00;;;;;;;;5071918;28;8921;-70
2023/09/15 06:13:07;;;;;;;;;10.25;8.50;;;;;;;;5071068;28;8957;-70
2023/09/15 06:15:35;;;;;;;;;9.50;9.50;;;;;;;;5073861;28;8874;-72
2023/09/15 06:18:02;;;;;;;;;8.25;8.25;;;;;;;;5073939;28;8872;-70
2023/09/15 06:20:31;;;;;;;;;8.00;8.00;;;;;;;;5073501;28;8848;-70
2023/09/15 06:23:00;;;;;;;;;10.75;10.75;;;;;;;;5073744;28;8856;-69
2023/09/15 06:25:27;;;;;;;;;8.25;8.25;;;;;;;;5075151;28;9639;-78
2023/09/15 06:27:57;;;;;;;;;9.25;9.25;;;;;;;;5062493;28;8841;-73
2023/09/15 06:30:24;;;;;;;;;10.00;10.00;;;;;;;;5073069;28;8756;-79
2023/09/15 06:32:54;;;;;;;;;10.50;9.25;;;;;;;;5073174;28;8866;-78
2023/09/15 06:35:21;;;;;;;;;9.75;9.75;;;;;;;;5070501;28;8856;-79
2023/09/15 06:37:48;;;;;;;;;8.75;8.75;;;;;;;;5064517;28;8858;-71
2023/09/15 06:40:17;;;;;;;;;8.00;8.00;;;;;;;;5070727;28;8868;-79
2023/09/15 06:42:45;;;;;;;;;9.50;8.25;;;;;;;;5070936;28;8863;-82
2023/09/15 06:45:12;;;;;;;;;8.75;8.75;;;;;;;;5070612;28;8853;-84
2023/09/15 06:47:39;;;;;;;;;9.50;8.00;;;;;;;;5071444;28;9602;-74
2023/09/15 06:50:07;;;;;;;;;8.75;7.50;;;;;;;;5072032;28;8879;-82
2023/09/15 06:52:36;;;;;;;;;8.50;8.50;;;;;;;;5071160;28;8844;-84
2023/09/15 06:55:04;;;;;;;;;10.00;8.75;;;;;;;;5070267;28;8868;-74
2023/09/15 06:57:33;;;;;;;;;7.00;7.00;;;;;;;;5070599;28;8848;-81
2023/09/15 07:00:00;;;;;;;;;8.00;8.00;;;;;;;;5070413;28;8887;-73
2023/09/15 07:02:27;;;;;;;;;8.75;8.00;;;;;;;;5071417;28;8813;-77
2023/09/15 07:04:54;;;;;;;;;8.25;8.25;;;;;;;;5069589;28;8872;-73
2023/09/15 07:07:21;;;;;;;;;6.75;6.75;;;;;;;;5071043;28;8979;-70
2023/09/15 07:09:50;;;;;;;;;7.75;7.75;;;;;;;;5069670;28;8856;-81
2023/09/15 07:12:18;;;;;;;;;7.25;7.25;;;;;;;;5069406;28;8864;-72
2023/09/15 07:14:49;;;;;;;;;7.75;7.75;;;;;;;;5069216;28;9726;-74
2023/09/15 07:17:17;;;;;;;;;7.75;7.75;;;;;;;;5070133;28;8891;-74
2023/09/15 07:19:46;;;;;;;;;9.00;7.50;;;;;;;;5082164;28;8841;-71
2023/09/15 07:22:13;;;;;;;;;6.50;6.50;;;;;;;;5069018;28;8970;-72
2023/09/15 07:24:41;;;;;;;;;8.50;8.50;;;;;;;;5069450;28;8871;-73
2023/09/15 07:27:08;;;;;;;;;5.75;5.75;;;;;;;;5069288;28;8875;-73
2023/09/15 07:29:36;;;;;;;;;8.50;7.75;;;;;;;;5069645;28;9633;-70
2023/09/15 07:32:05;;;;;;;;;4.75;4.75;;;;;;;;5068736;28;8804;-71
2023/09/15 07:34:32;;;;;;;;;5.50;5.50;;;;;;;;5070329;28;8933;-70
2023/09/15 07:37:00;;;;;;;;;6.25;6.25;;;;;;;;5069945;28;8858;-70
2023/09/15 07:39:29;;;;;;;;;9.75;9.75;;;;;;;;5070541;28;8887;-78
2023/09/15 07:41:57;;;;;;;;;9.00;7.75;;;;;;;;5069098;28;8858;-71
2023/09/15 07:44:24;;;;;;;;;8.00;6.00;;;;;;;;5070014;28;8851;-72
2023/09/15 07:46:51;;;;;;;;;6.00;6.00;;;;;;;;5069061;28;8874;-69
2023/09/15 07:49:20;;;;;;;;;7.00;7.00;;;;;;;;5070164;28;8866;-70
2023/09/15 07:51:48;;;;;;;;;6.25;6.25;;;;;;;;5071292;28;8884;-71
2023/09/15 07:54:16;;;;;;;;;7.25;7.25;;;;;;;;5072203;28;8860;-72
2023/09/15 07:56:43;;;;;;;;;7.75;5.75;;;;;;;;5071371;28;8841;-70
2023/09/15 07:59:10;;;;;;;;;5.50;5.50;;;;;;;;5072530;28;8860;-70
2023/09/15 08:01:37;;;;;;;;;6.00;6.00;;;;;;;;5071731;28;8797;-70
2023/09/15 08:04:05;;;;;;;;;5.75;5.75;;;;;;;;5069554;28;8933;-82
2023/09/15 08:06:34;;;;;;;;;5.75;5.75;;;;;;;;5071897;28;8844;-76
2023/09/15 08:09:00;;;;;;;;;4.50;4.50;;;;;;;;5074356;28;8947;-78
2023/09/15 08:11:27;;;;;;;;;7.50;7.50;;;;;;;;5072341;28;9615;-81
2023/09/15 08:13:54;;;;;;;;;5.00;5.00;;;;;;;;5070817;28;8858;-82
2023/09/15 08:16:21;;;;;;;;;6.00;6.00;;;;;;;;5069028;28;8897;-78
2023/09/15 08:18:48;;;;;;;;;8.00;8.00;;;;;;;;5068781;28;8844;-77
2023/09/15 08:21:15;;;;;;;;;4.40;4.40;;;;;;;;5068758;28;8856;-73
2023/09/15 08:23:44;;;;;;;;;5.00;5.00;;;;;;;;5068141;28;8855;-85
2023/09/15 08:26:11;;;;;;;;;5.00;5.00;;;;;;;;5068917;28;8909;-88
2023/09/15 08:28:38;;;;;;;;;5.00;5.00;;;;;;;;5068735;28;8852;-81
2023/09/15 08:31:05;;;;;;;;;5.80;5.80;;;;;;;;5067886;28;8809;-77
2023/09/15 08:33:33;;;;;;;;;5.80;5.80;;;;;;;;5068157;28;8862;-71
2023/09/15 08:36:00;;;;;;;;;4.80;4.80;;;;;;;;5067940;28;8879;-78
2023/09/15 08:38:31;;;;;;;;;4.80;4.80;;;;;;;;5067901;28;8990;-74
2023/09/15 08:41:04;;;;;;;;;5.60;5.00;;;;;;;;5069474;28;8855;-73
2023/09/15 08:43:32;;;;;;;;;4.60;4.60;;;;;;;;5071970;28;9659;-76
2023/09/15 08:46:00;;;;;;;;;7.00;7.00;;;;;;;;5071255;28;8848;-81
2023/09/15 08:48:30;;;;;;;;;3.20;3.20;;;;;;;;5069497;28;8860;-83
2023/09/15 08:51:00;;;;;;;;;5.60;5.60;;;;;;;;5068939;28;8849;-81
2023/09/15 08:53:27;;;;;;;;;6.00;5.20;;;;;;;;5070294;28;8864;-82
2023/09/15 08:55:54;;;;;;;;;4.20;4.20;;;;;;;;5070346;28;8870;-78
2023/09/15 08:58:25;;;;;;;;;6.40;6.40;;;;;;;;5068533;28;8852;-74
2023/09/15 09:00:53;;;;;;;;;3.80;3.80;;;;;;;;5068869;28;8780;-79
2023/09/15 09:03:23;;;;;;;;;6.20;5.80;;;;;;;;5068493;28;8975;-79
2023/09/15 09:05:52;;;;;;;;;4.80;4.80;;;;;;;;5068434;28;8836;-81
2023/09/15 09:08:20;;;;;;;;;2.20;2.20;;;;;;;;5067825;28;8856;-71
2023/09/15 09:10:47;;;;;;;;;5.60;5.60;;;;;;;;5067885;28;9623;-69
2023/09/15 09:13:15;;;;;;;;;4.20;4.20;;;;;;;;5067158;28;8866;-72
2023/09/15 09:15:44;;;;;;;;;5.40;2.00;;;;;;;;5067248;28;8856;-82
2023/09/15 09:18:18;;;;;;;;;4.60;4.60;;;;;;;;5055650;28;8914;-74
2023/09/15 09:20:49;;;;;;;;;3.00;3.00;;;;;;;;5067573;28;8852;-70
2023/09/15 09:23:17;;;;;;;;;4.80;4.80;;;;;;;;5068182;28;9706;-70
2023/09/15 09:25:45;;;;;;;;;5.20;4.80;;;;;;;;5067276;28;8862;-72
2023/09/15 09:28:12;;;;;;;;;4.80;4.80;;;;;;;;5068416;28;8840;-70
2023/09/15 09:30:39;;;;;;;;;2.40;2.40;;;;;;;;5071333;28;8817;-70
2023/09/15 09:33:10;;;;;;;;;3.40;3.40;;;;;;;;5080817;28;8878;-74
2023/09/15 09:35:37;;;;;;;;;2.80;2.80;;;;;;;;5071795;28;8852;-71
2023/09/15 09:38:04;;;;;;;;;4.00;4.00;;;;;;;;5075263;28;8872;-70
2023/09/15 09:40:33;;;;;;;;;2.60;2.60;;;;;;;;5074328;28;8860;-80
2023/09/15 09:43:02;;;;;;;;;6.40;3.00;;;;;;;;5071984;28;8844;-81
2023/09/15 09:45:30;;;;;;;;;3.80;3.80;;;;;;;;5072231;28;8860;-80
2023/09/15 09:48:00;;;;;;;;;4.00;4.00;;;;;;;;5072512;28;8852;-70
2023/09/15 09:50:28;;;;;;;;;2.80;2.80;;;;;;;;5072878;28;8848;-71
2023/09/15 09:52:56;;;;;;;;;3.20;3.20;;;;;;;;5075469;28;9680;-75
2023/09/15 09:55:25;;;;;;;;;3.80;3.80;;;;;;;;5074518;28;8841;-86
2023/09/15 09:57:53;;;;;;;;;5.60;2.80;;;;;;;;5072801;28;8868;-73
2023/09/15 10:00:22;;;;;;;;;3.40;3.40;;;;;;;;5071023;28;8840;-75
2023/09/15 10:02:49;;;;;;;;;2.40;2.40;;;;;;;;5070913;28;8878;-89
2023/09/15 10:05:17;;;;;;;;;4.80;3.00;;;;;;;;5071988;28;8874;-80
2023/09/15 10:07:47;;;;;;;;;2.00;2.00;;;;;;;;5070869;28;8852;-76
2023/09/15 10:10:14;;;;;;;;;3.40;3.40;;;;;;;;5072126;28;8853;-85
2023/09/15 10:12:41;;;;;;;;;2.80;2.60;;;;;;;;5070701;28;8878;-72
2023/09/15 10:15:09;;;;;;;;;2.80;2.80;;;;;;;;5070752;28;9681;-83
2023/09/15 10:17:40;;;;;;;;;3.00;3.00;;;;;;;;5070322;28;8963;-81
2023/09/15 10:20:09;;;;;;;;;3.40;3.40;;;;;;;;5071045;28;8852;-71
2023/09/15 10:22:38;;;;;;;;;5.00;3.80;;;;;;;;5070442;28;8887;-72
2023/09/15 10:25:08;;;;;;;;;3.20;2.00;;;;;;;;5071146;28;8848;-83
2023/09/15 10:27:36;;;;;;;;;3.00;3.00;;;;;;;;5071781;28;9603;-72
2023/09/15 10:30:04;;;;;;;;;1.20;1.20;;;;;;;;5071614;28;8852;-73
2023/09/15 10:32:38;;;;;;;;;4.40;3.20;;;;;;;;5071055;28;9671;-76
2023/09/15 10:35:08;;;;;;;;;1.00;1.00;;;;;;;;5071998;28;8824;-73
2023/09/15 10:37:41;;;;;;;;;3.00;3.00;;;;;;;;5063034;28;8852;-73
2023/09/15 10:40:12;;;;;;;;;2.60;2.60;;;;;;;;5070256;28;9009;-75
2023/09/15 10:42:49;;;;;;;;;3.60;3.20;;;;;;;;5071888;28;8856;-73
2023/09/15 10:45:16;;;;;;;;;3.80;3.80;;;;;;;;5071201;28;8844;-71
2023/09/15 10:47:43;;;;;;;;;2.40;2.40;;;;;;;;5070373;28;8841;-75
2023/09/15 10:50:11;;;;;;;;;3.20;3.20;;;;;;;;5070554;28;8979;-72
2023/09/15 10:52:39;;;;;;;;;2.00;2.00;;;;;;;;5070754;28;8975;-71
2023/09/15 10:55:09;;;;;;;;;1.00;1.00;;;;;;;;5070362;28;8862;-73
2023/09/15 10:57:36;;;;;;;;;0.00;0.00;;;;;;;;5070573;28;8886;-71
2023/09/15 11:00:06;;;;;;;;;2.00;2.00;;;;;;;;5070477;28;8878;-72
2023/09/15 11:02:36;;;;;;;;;3.00;3.00;;;;;;;;5050319;28;8819;-80
2023/09/15 11:05:05;;;;;;;;;2.00;2.00;;;;;;;;5050239;28;8854;-74
2023/09/15 11:07:35;;;;;;;;;3.60;3.60;;;;;;;;5052866;28;8866;-71
2023/09/15 11:10:07;;;;;;;;;3.00;3.00;;;;;;;;5041318;28;8871;-72
2023/09/15 11:12:35;;;;;;;;;2.00;2.00;;;;;;;;5051326;28;9000;-74
2023/09/15 11:15:06;;;;;;;;;2.20;2.20;;;;;;;;5051242;28;8875;-73
2023/09/15 11:17:33;;;;;;;;;2.20;2.20;;;;;;;;5051656;28;8846;-84
2023/09/15 11:20:05;;;;;;;;;2.00;2.00;;;;;;;;5049858;28;8862;-83
2023/09/15 11:22:33;;;;;;;;;2.40;2.20;;;;;;;;5049502;28;8874;-85
2023/09/15 11:25:00;;;;;;;;;2.00;2.00;;;;;;;;5049545;28;8863;-88
2023/09/15 11:27:27;;;;;;;;;3.60;3.60;;;;;;;;5049969;28;8830;-81
2023/09/15 11:29:56;;;;;;;;;4.00;2.20;;;;;;;;5049702;28;8851;-87
2023/09/15 11:32:24;;;;;;;;;1.80;1.80;;;;;;;;5068004;28;8800;-80
2023/09/15 11:34:52;;;;;;;;;3.80;3.00;;;;;;;;5069821;28;8867;-72
2023/09/15 11:37:21;;;;;;;;;3.40;3.40;;;;;;;;5068649;28;8852;-81
2023/09/15 11:39:54;;;;;;;;;4.20;3.00;;;;;;;;5071305;28;8844;-77
2023/09/15 11:42:22;;;;;;;;;3.80;3.40;;;;;;;;5072189;28;8903;-82
2023/09/15 11:44:51;;;;;;;;;3.60;2.00;;;;;;;;5071454;28;8863;-78
2023/09/15 11:47:20;;;;;;;;;2.40;2.40;;;;;;;;5070862;28;8824;-83
2023/09/15 11:49:50;;;;;;;;;2.20;2.20;;;;;;;;5069239;28;9479;-77
2023/09/15 11:52:17;;;;;;;;;1.60;1.60;;;;;;;;5056615;28;8852;-81
2023/09/15 11:54:47;;;;;;;;;4.20;4.20;;;;;;;;5067785;28;8970;-75
2023/09/15 11:57:15;;;;;;;;;2.00;2.00;;;;;;;;5068342;28;8848;-76
2023/09/15 11:59:42;;;;;;;;;3.00;3.00;;;;;;;;5066519;28;8860;-73
2023/09/15 12:02:10;;;;;;;;;4.20;2.20;;;;;;;;5067923;28;8860;-75
2023/09/15 12:04:38;;;;;;;;;2.00;2.00;;;;;;;;5068441;28;8856;-74
2023/09/15 12:07:06;;;;;;;;;3.00;3.00;;;;;;;;5069030;28;8845;-77
2023/09/15 12:09:33;;;;;;;;;4.40;4.00;;;;;;;;5068692;28;8997;-74
2023/09/15 12:12:00;;;;;;;;;4.20;3.20;;;;;;;;5068724;28;8868;-74
2023/09/15 12:14:28;;;;;;;;;2.00;2.00;;;;;;;;5068480;28;8839;-78
2023/09/15 12:16:58;;;;;;;;;2.00;2.00;;;;;;;;5068287;28;8902;-75
2023/09/15 12:19:25;;;;;;;;;2.40;2.40;;;;;;;;5068334;28;8888;-76
2023/09/15 12:21:55;;;;;;;;;1.00;1.00;;;;;;;;5068302;28;8872;-75
2023/09/15 12:24:25;;;;;;;;;2.00;2.00;;;;;;;;5068412;28;8836;-85
2023/09/15 12:26:54;;;;;;;;;4.00;2.00;;;;;;;;5068708;28;8987;-82
2023/09/15 12:29:23;;;;;;;;;2.00;2.00;;;;;;;;5068562;28;8840;-78
2023/09/15 12:31:51;;;;;;;;;2.00;2.00;;;;;;;;5067768;28;8789;-78
2023/09/15 12:34:24;;;;;;;;;2.40;2.40;;;;;;;;5068517;28;9650;-78
2023/09/15 12:36:53;;;;;;;;;2.00;2.00;;;;;;;;5068209;28;8870;-79
2023/09/15 12:39:22;;;;;;;;;1.40;1.40;;;;;;;;5068652;28;8930;-78
2023/09/15 12:41:59;;;;;;;;;1.00;1.00;;;;;;;;5067830;28;8959;-77
2023/09/15 12:44:27;;;;;;;;;2.80;1.40;;;;;;;;5069660;28;8856;-78
2023/09/15 12:46:57;;;;;;;;;2.80;2.80;;;;;;;;5071354;28;8866;-78
2023/09/15 12:49:25;;;;;;;;;2.20;1.00;;;;;;;;5073428;28;8864;-80
2023/09/15 12:51:53;;;;;;;;;3.00;1.00;;;;;;;;5072687;28;8840;-80
2023/09/15 12:54:22;;;;;;;;;2.40;2.40;;;;;;;;5073583;28;8975;-79
2023/09/15 12:56:52;;;;;;;;;1.80;1.80;;;;;;;;5069779;28;8848;-78
2023/09/15 12:59:20;;;;;;;;;1.60;1.60;;;;;;;;5069332;28;8869;-83
2023/09/15 13:01:48;;;;;;;;;1.20;1.20;;;;;;;;5060078;28;8813;-80
2023/09/15 13:04:16;;;;;;;;;3.00;1.40;;;;;;;;5068636;28;8861;-79
2023/09/15 13:06:43;;;;;;;;;1.80;1.00;;;;;;;;5067276;28;8845;-83
2023/09/15 13:09:10;;;;;;;;;0.00;0.00;;;;;;;;5067973;28;8857;-85
2023/09/15 13:11:39;;;;;;;;;0.20;0.20;;;;;;;;5061639;28;8881;-84
2023/09/15 13:14:09;;;;;;;;;2.00;2.00;;;;;;;;5048773;28;8874;-80
2023/09/15 13:16:37;;;;;;;;;1.00;1.00;;;;;;;;5068191;28;8852;-77
2023/09/15 13:19:04;;;;;;;;;1.00;1.00;;;;;;;;5067123;28;9597;-80
2023/09/15 13:21:33;;;;;;;;;1.00;1.00;;;;;;;;5068487;28;8864;-80
2023/09/15 13:24:03;;;;;;;;;0.80;0.80;;;;;;;;5067966;28;9658;-82
2023/09/15 13:26:33;;;;;;;;;1.60;1.60;;;;;;;;5069652;28;8860;-81
2023/09/15 13:29:03;;;;;;;;;2.60;2.60;;;;;;;;5067830;28;9599;-79
2023/09/15 13:31:31;;;;;;;;;0.00;0.00;;;;;;;;5068119;28;8805;-80
2023/09/15 13:33:58;;;;;;;;;0.00;0.00;;;;;;;;5068120;28;8849;-78
2023/09/15 13:36:27;;;;;;;;;0.00;0.00;;;;;;;;5067895;28;8863;-80
2023/09/15 13:38:54;;;;;;;;;0.80;0.80;;;;;;;;5067375;28;8828;-79
2023/09/15 13:41:23;;;;;;;;;3.60;2.00;;;;;;;;5068060;28;8982;-78
2023/09/15 13:43:50;;;;;;;;;1.00;1.00;;;;;;;;5067975;28;8864;-78
2023/09/15 13:46:19;;;;;;;;;1.80;1.80;;;;;;;;5069314;28;8840;-80
2023/09/15 13:48:49;;;;;;;;;1.00;1.00;;;;;;;;5066754;28;8983;-79
2023/09/15 13:51:18;;;;;;;;;1.00;1.00;;;;;;;;5068000;28;8856;-79
2023/09/15 13:53:48;;;;;;;;;2.00;2.00;;;;;;;;5067552;28;8872;-77
2023/09/15 13:56:18;;;;;;;;;0.20;0.20;;;;;;;;5069234;28;8841;-78
2023/09/15 13:58:45;;;;;;;;;1.00;1.00;;;;;;;;5056035;28;8859;-78
2023/09/15 14:01:13;;;;;;;;;1.00;1.00;;;;;;;;5055817;28;8771;-78
2023/09/15 14:03:44;;;;;;;;;1.00;1.00;;;;;;;;5056073;28;8837;-78
2023/09/15 14:06:11;;;;;;;;;1.00;1.00;;;;;;;;5067323;28;8995;-78
2023/09/15 14:08:38;;;;;;;;;2.60;1.00;;;;;;;;5067537;28;8860;-79
2023/09/15 14:11:06;;;;;;;;;0.20;0.20;;;;;;;;5068000;28;8840;-79
2023/09/15 14:13:34;;;;;;;;;1.00;1.00;;;;;;;;5067522;28;8868;-79
2023/09/15 14:16:02;;;;;;;;;1.00;1.00;;;;;;;;5065457;28;8839;-78
2023/09/15 14:18:29;;;;;;;;;1.60;1.60;;;;;;;;5068978;28;8844;-78
2023/09/15 14:21:00;;;;;;;;;0.00;0.00;;;;;;;;5070065;28;8848;-78
2023/09/15 14:23:28;;;;;;;;;0.20;0.20;;;;;;;;5075917;28;8841;-78
2023/09/15 14:25:57;;;;;;;;;0.00;0.00;;;;;;;;5075470;28;8860;-78
2023/09/15 14:28:24;;;;;;;;;1.20;1.20;;;;;;;;5076489;28;8848;-77
2023/09/15 14:30:53;;;;;;;;;0.40;0.40;;;;;;;;5064450;28;8836;-79
2023/09/15 14:33:20;;;;;;;;;1.40;1.40;;;;;;;;5072418;28;8856;-79
2023/09/15 14:35:50;;;;;;;;;0.80;0.80;;;;;;;;5070095;28;8860;-79
2023/09/15 14:38:19;;;;;;;;;0.20;0.20;;;;;;;;5070340;28;8925;-79
2023/09/15 14:40:49;;;;;;;;;0.20;0.20;;;;;;;;5069394;28;8955;-79
2023/09/15 14:43:19;;;;;;;;;1.00;1.00;;;;;;;;5070618;28;8868;-78
2023/09/15 14:45:46;;;;;;;;;1.00;1.00;;;;;;;;5057920;28;8875;-78
2023/09/15 14:48:16;;;;;;;;;3.00;1.60;;;;;;;;5070084;28;8855;-79
2023/09/15 14:50:43;;;;;;;;;1.60;1.60;;;;;;;;5070716;28;8848;-79
2023/09/15 14:53:10;;;;;;;;;1.00;1.00;;;;;;;;5069703;28;8852;-80
2023/09/15 14:55:39;;;;;;;;;0.40;0.40;;;;;;;;5070200;28;8858;-79
2023/09/15 14:58:06;;;;;;;;;0.00;0.00;;;;;;;;5070362;28;8856;-79
2023/09/15 15:00:33;;;;;;;;;1.00;1.00;;;;;;;;5070224;28;8776;-79
2023/09/15 15:03:03;;;;;;;;;0.80;0.80;;;;;;;;5070315;28;8852;-77